sensor_id;sensor_type;location;lat;lon;timestamp;P1;durP1;ratioP1;P2;durP2;ratioP2
75218;SDS011;63801;49.414;19.474;2023-09-19T00:00:28;16.25;;;10.45;;
75218;SDS011;63801;49.414;19.474;2023-09-19T00:02:29;14.60;;;10.32;;
75218;SDS011;63801;49.414;19.474;2023-09-19T00:04:30;14.50;;;10.52;;
75218;SDS011;63801;49.414;19.474;2023-09-19T00:06:32;14.85;;;10.30;;
75218;SDS011;63801;49.414;19.474;2023-09-19T00:08:33;13.93;;;10.38;;
75218;SDS011;63801;49.414;19.474;2023-09-19T00:10:36;14.10;;;10.23;;
75218;SDS011;63801;49.414;19.474;2023-09-19T00:12:36;14.82;;;10.20;;
75218;SDS011;63801;49.414;19.474;2023-09-19T00:14:37;16.27;;;9.82;;
75218;SDS011;63801;49.414;19.474;2023-09-19T00:16:37;17.25;;;11.00;;
75218;SDS011;63801;49.414;19.474;2023-09-19T00:18:38;17.67;;;11.23;;
75218;SDS011;63801;49.414;19.474;2023-09-19T00:20:38;16.05;;;10.68;;
75218;SDS011;63801;49.414;19.474;2023-09-19T00:22:39;15.07;;;10.88;;
75218;SDS011;63801;49.414;19.474;2023-09-19T00:24:41;15.60;;;11.18;;
75218;SDS011;63801;49.414;19.474;2023-09-19T00:26:41;17.40;;;10.95;;
75218;SDS011;63801;49.414;19.474;2023-09-19T00:28:43;17.30;;;10.10;;
75218;SDS011;63801;49.414;19.474;2023-09-19T00:30:43;15.07;;;10.43;;
75218;SDS011;63801;49.414;19.474;2023-09-19T00:32:43;14.98;;;11.38;;
75218;SDS011;63801;49.414;19.474;2023-09-19T00:34:44;16.00;;;10.43;;
75218;SDS011;63801;49.414;19.474;2023-09-19T00:36:44;16.80;;;11.77;;
75218;SDS011;63801;49.414;19.474;2023-09-19T00:38:45;17.75;;;11.48;;
75218;SDS011;63801;49.414;19.474;2023-09-19T00:40:47;17.60;;;10.85;;
75218;SDS011;63801;49.414;19.474;2023-09-19T00:42:48;17.13;;;11.37;;
75218;SDS011;63801;49.414;19.474;2023-09-19T00:44:49;19.98;;;12.10;;
75218;SDS011;63801;49.414;19.474;2023-09-19T00:46:51;15.63;;;11.02;;
75218;SDS011;63801;49.414;19.474;2023-09-19T00:48:52;17.23;;;11.88;;
75218;SDS011;63801;49.414;19.474;2023-09-19T00:50:53;17.77;;;11.32;;
75218;SDS011;63801;49.414;19.474;2023-09-19T00:52:54;15.73;;;11.75;;
75218;SDS011;63801;49.414;19.474;2023-09-19T00:54:58;18.58;;;11.90;;
75218;SDS011;63801;49.414;19.474;2023-09-19T00:57:00;16.30;;;10.80;;
75218;SDS011;63801;49.414;19.474;2023-09-19T00:59:00;17.52;;;11.45;;
75218;SDS011;63801;49.414;19.474;2023-09-19T01:01:01;15.68;;;10.88;;
75218;SDS011;63801;49.414;19.474;2023-09-19T01:03:03;15.95;;;10.82;;
75218;SDS011;63801;49.414;19.474;2023-09-19T01:05:04;13.63;;;10.05;;
75218;SDS011;63801;49.414;19.474;2023-09-19T01:07:05;17.40;;;11.07;;
75218;SDS011;63801;49.414;19.474;2023-09-19T01:09:06;16.10;;;10.80;;
75218;SDS011;63801;49.414;19.474;2023-09-19T01:11:20;14.02;;;10.65;;
75218;SDS011;63801;49.414;19.474;2023-09-19T01:13:34;14.15;;;10.20;;
75218;SDS011;63801;49.414;19.474;2023-09-19T01:18:01;16.08;;;10.48;;
75218;SDS011;63801;49.414;19.474;2023-09-19T01:20:27;14.65;;;10.68;;
75218;SDS011;63801;49.414;19.474;2023-09-19T01:27:23;15.80;;;11.10;;
75218;SDS011;63801;49.414;19.474;2023-09-19T01:29:47;18.13;;;11.65;;
75218;SDS011;63801;49.414;19.474;2023-09-19T01:31:49;13.23;;;10.35;;
75218;SDS011;63801;49.414;19.474;2023-09-19T01:35:59;16.67;;;10.43;;
75218;SDS011;63801;49.414;19.474;2023-09-19T01:37:59;14.18;;;10.00;;
75218;SDS011;63801;49.414;19.474;2023-09-19T01:40:07;16.77;;;10.85;;
75218;SDS011;63801;49.414;19.474;2023-09-19T01:42:28;17.20;;;10.88;;
75218;SDS011;63801;49.414;19.474;2023-09-19T01:44:54;15.63;;;10.90;;
75218;SDS011;63801;49.414;19.474;2023-09-19T01:46:57;18.45;;;11.32;;
75218;SDS011;63801;49.414;19.474;2023-09-19T01:51:26;20.27;;;11.77;;
75218;SDS011;63801;49.414;19.474;2023-09-19T01:56:08;18.58;;;12.13;;
75218;SDS011;63801;49.414;19.474;2023-09-19T01:58:27;16.33;;;11.25;;
75218;SDS011;63801;49.414;19.474;2023-09-19T02:00:34;15.30;;;12.27;;
75218;SDS011;63801;49.414;19.474;2023-09-19T02:02:37;20.42;;;12.68;;
75218;SDS011;63801;49.414;19.474;2023-09-19T02:04:39;22.05;;;12.18;;
75218;SDS011;63801;49.414;19.474;2023-09-19T02:06:40;18.17;;;12.70;;
75218;SDS011;63801;49.414;19.474;2023-09-19T02:08:41;20.40;;;11.95;;
75218;SDS011;63801;49.414;19.474;2023-09-19T02:10:41;20.40;;;12.50;;
75218;SDS011;63801;49.414;19.474;2023-09-19T02:12:41;22.83;;;12.52;;
75218;SDS011;63801;49.414;19.474;2023-09-19T02:14:42;20.33;;;12.98;;
75218;SDS011;63801;49.414;19.474;2023-09-19T02:16:42;16.40;;;12.32;;
75218;SDS011;63801;49.414;19.474;2023-09-19T02:18:42;20.95;;;12.40;;
75218;SDS011;63801;49.414;19.474;2023-09-19T02:20:43;17.42;;;12.88;;
75218;SDS011;63801;49.414;19.474;2023-09-19T02:22:43;20.35;;;12.57;;
75218;SDS011;63801;49.414;19.474;2023-09-19T02:24:44;19.65;;;13.18;;
75218;SDS011;63801;49.414;19.474;2023-09-19T02:26:48;17.98;;;12.60;;
75218;SDS011;63801;49.414;19.474;2023-09-19T02:28:48;23.42;;;14.27;;
75218;SDS011;63801;49.414;19.474;2023-09-19T02:30:48;19.27;;;12.60;;
75218;SDS011;63801;49.414;19.474;2023-09-19T02:32:50;17.55;;;12.80;;
75218;SDS011;63801;49.414;19.474;2023-09-19T02:34:50;21.27;;;13.38;;
75218;SDS011;63801;49.414;19.474;2023-09-19T02:36:51;19.63;;;13.07;;
75218;SDS011;63801;49.414;19.474;2023-09-19T02:38:53;18.73;;;14.00;;
75218;SDS011;63801;49.414;19.474;2023-09-19T02:40:54;21.77;;;13.25;;
75218;SDS011;63801;49.414;19.474;2023-09-19T02:42:57;22.35;;;13.93;;
75218;SDS011;63801;49.414;19.474;2023-09-19T02:44:59;19.45;;;14.52;;
75218;SDS011;63801;49.414;19.474;2023-09-19T02:46:59;20.23;;;14.25;;
75218;SDS011;63801;49.414;19.474;2023-09-19T02:49:00;21.10;;;15.02;;
75218;SDS011;63801;49.414;19.474;2023-09-19T02:51:00;20.27;;;14.00;;
75218;SDS011;63801;49.414;19.474;2023-09-19T02:53:01;19.52;;;14.23;;
75218;SDS011;63801;49.414;19.474;2023-09-19T02:55:01;23.15;;;14.27;;
75218;SDS011;63801;49.414;19.474;2023-09-19T02:57:05;20.95;;;14.45;;
75218;SDS011;63801;49.414;19.474;2023-09-19T02:59:06;22.58;;;15.13;;
75218;SDS011;63801;49.414;19.474;2023-09-19T03:01:07;24.00;;;15.35;;
75218;SDS011;63801;49.414;19.474;2023-09-19T03:03:09;26.25;;;15.32;;
75218;SDS011;63801;49.414;19.474;2023-09-19T03:05:09;20.65;;;14.52;;
75218;SDS011;63801;49.414;19.474;2023-09-19T03:07:11;22.92;;;15.00;;
75218;SDS011;63801;49.414;19.474;2023-09-19T03:09:11;23.23;;;15.13;;
75218;SDS011;63801;49.414;19.474;2023-09-19T03:11:12;21.85;;;14.40;;
75218;SDS011;63801;49.414;19.474;2023-09-19T03:13:14;22.50;;;15.43;;
75218;SDS011;63801;49.414;19.474;2023-09-19T03:15:15;21.65;;;14.98;;
75218;SDS011;63801;49.414;19.474;2023-09-19T03:17:18;21.38;;;14.52;;
75218;SDS011;63801;49.414;19.474;2023-09-19T03:19:20;20.35;;;13.52;;
75218;SDS011;63801;49.414;19.474;2023-09-19T03:21:20;22.23;;;13.85;;
75218;SDS011;63801;49.414;19.474;2023-09-19T03:23:22;27.83;;;15.45;;
75218;SDS011;63801;49.414;19.474;2023-09-19T03:25:23;20.10;;;14.43;;
75218;SDS011;63801;49.414;19.474;2023-09-19T03:27:24;18.52;;;13.98;;
75218;SDS011;63801;49.414;19.474;2023-09-19T03:29:24;20.58;;;14.02;;
75218;SDS011;63801;49.414;19.474;2023-09-19T03:31:25;21.05;;;14.63;;
75218;SDS011;63801;49.414;19.474;2023-09-19T03:33:26;20.95;;;13.90;;
75218;SDS011;63801;49.414;19.474;2023-09-19T03:35:26;20.58;;;14.75;;
75218;SDS011;63801;49.414;19.474;2023-09-19T03:37:26;19.40;;;13.85;;
75218;SDS011;63801;49.414;19.474;2023-09-19T03:39:27;21.02;;;14.25;;
75218;SDS011;63801;49.414;19.474;2023-09-19T03:41:27;19.48;;;14.40;;
75218;SDS011;63801;49.414;19.474;2023-09-19T03:43:27;22.02;;;14.90;;
75218;SDS011;63801;49.414;19.474;2023-09-19T03:45:28;24.13;;;15.32;;
75218;SDS011;63801;49.414;19.474;2023-09-19T03:47:28;22.77;;;15.07;;
75218;SDS011;63801;49.414;19.474;2023-09-19T03:49:29;27.48;;;15.00;;
75218;SDS011;63801;49.414;19.474;2023-09-19T03:51:30;22.92;;;15.27;;
75218;SDS011;63801;49.414;19.474;2023-09-19T03:53:31;23.90;;;15.82;;
75218;SDS011;63801;49.414;19.474;2023-09-19T03:55:31;24.73;;;16.05;;
75218;SDS011;63801;49.414;19.474;2023-09-19T03:57:32;21.65;;;14.98;;
75218;SDS011;63801;49.414;19.474;2023-09-19T03:59:32;22.95;;;15.98;;
75218;SDS011;63801;49.414;19.474;2023-09-19T04:01:32;24.15;;;16.55;;
75218;SDS011;63801;49.414;19.474;2023-09-19T04:03:33;26.30;;;17.02;;
75218;SDS011;63801;49.414;19.474;2023-09-19T04:05:45;27.60;;;17.30;;
75218;SDS011;63801;49.414;19.474;2023-09-19T04:07:46;30.48;;;18.20;;
75218;SDS011;63801;49.414;19.474;2023-09-19T04:09:47;28.25;;;17.88;;
75218;SDS011;63801;49.414;19.474;2023-09-19T04:11:49;31.08;;;20.15;;
75218;SDS011;63801;49.414;19.474;2023-09-19T04:13:50;32.90;;;20.80;;
75218;SDS011;63801;49.414;19.474;2023-09-19T04:15:50;29.25;;;20.38;;
75218;SDS011;63801;49.414;19.474;2023-09-19T04:17:51;31.63;;;20.67;;
75218;SDS011;63801;49.414;19.474;2023-09-19T04:19:51;23.42;;;16.45;;
75218;SDS011;63801;49.414;19.474;2023-09-19T04:21:51;28.15;;;18.52;;
75218;SDS011;63801;49.414;19.474;2023-09-19T04:23:52;28.05;;;19.80;;
75218;SDS011;63801;49.414;19.474;2023-09-19T04:25:52;27.52;;;18.08;;
75218;SDS011;63801;49.414;19.474;2023-09-19T04:27:52;35.22;;;20.35;;
75218;SDS011;63801;49.414;19.474;2023-09-19T04:29:53;31.92;;;19.85;;
75218;SDS011;63801;49.414;19.474;2023-09-19T04:31:53;31.90;;;20.83;;
75218;SDS011;63801;49.414;19.474;2023-09-19T04:33:53;30.70;;;20.67;;
75218;SDS011;63801;49.414;19.474;2023-09-19T04:35:54;27.38;;;19.17;;
75218;SDS011;63801;49.414;19.474;2023-09-19T04:37:55;25.83;;;18.10;;
75218;SDS011;63801;49.414;19.474;2023-09-19T04:39:55;33.90;;;20.83;;
75218;SDS011;63801;49.414;19.474;2023-09-19T04:41:55;27.85;;;19.85;;
75218;SDS011;63801;49.414;19.474;2023-09-19T04:43:56;30.42;;;20.15;;
75218;SDS011;63801;49.414;19.474;2023-09-19T04:45:58;31.95;;;21.17;;
75218;SDS011;63801;49.414;19.474;2023-09-19T04:48:00;30.27;;;19.95;;
75218;SDS011;63801;49.414;19.474;2023-09-19T04:50:00;30.67;;;20.80;;
75218;SDS011;63801;49.414;19.474;2023-09-19T04:52:01;29.67;;;21.20;;
75218;SDS011;63801;49.414;19.474;2023-09-19T04:54:01;31.30;;;21.48;;
75218;SDS011;63801;49.414;19.474;2023-09-19T04:56:02;31.67;;;20.65;;
75218;SDS011;63801;49.414;19.474;2023-09-19T04:58:03;34.78;;;21.15;;
75218;SDS011;63801;49.414;19.474;2023-09-19T05:00:04;34.22;;;21.33;;
75218;SDS011;63801;49.414;19.474;2023-09-19T05:02:12;30.10;;;20.10;;
75218;SDS011;63801;49.414;19.474;2023-09-19T05:04:12;31.17;;;20.20;;
75218;SDS011;63801;49.414;19.474;2023-09-19T05:06:13;27.40;;;19.80;;
75218;SDS011;63801;49.414;19.474;2023-09-19T05:08:13;31.23;;;19.30;;
75218;SDS011;63801;49.414;19.474;2023-09-19T05:10:14;28.40;;;18.70;;
75218;SDS011;63801;49.414;19.474;2023-09-19T05:12:18;29.48;;;17.70;;
75218;SDS011;63801;49.414;19.474;2023-09-19T05:14:19;28.20;;;17.58;;
75218;SDS011;63801;49.414;19.474;2023-09-19T05:16:21;29.13;;;19.15;;
75218;SDS011;63801;49.414;19.474;2023-09-19T05:18:22;25.52;;;16.08;;
75218;SDS011;63801;49.414;19.474;2023-09-19T05:20:22;21.38;;;16.10;;
75218;SDS011;63801;49.414;19.474;2023-09-19T05:22:29;22.92;;;15.55;;
75218;SDS011;63801;49.414;19.474;2023-09-19T05:24:29;20.73;;;15.35;;
75218;SDS011;63801;49.414;19.474;2023-09-19T05:26:30;19.40;;;14.30;;
75218;SDS011;63801;49.414;19.474;2023-09-19T05:28:31;20.65;;;14.55;;
75218;SDS011;63801;49.414;19.474;2023-09-19T05:30:34;19.23;;;13.63;;
75218;SDS011;63801;49.414;19.474;2023-09-19T05:32:39;19.23;;;13.50;;
75218;SDS011;63801;49.414;19.474;2023-09-19T05:34:39;18.17;;;12.40;;
75218;SDS011;63801;49.414;19.474;2023-09-19T05:36:40;16.48;;;12.55;;
75218;SDS011;63801;49.414;19.474;2023-09-19T05:38:40;16.27;;;11.70;;
75218;SDS011;63801;49.414;19.474;2023-09-19T05:40:42;14.93;;;11.18;;
75218;SDS011;63801;49.414;19.474;2023-09-19T05:42:42;15.65;;;11.60;;
75218;SDS011;63801;49.414;19.474;2023-09-19T05:44:44;15.25;;;11.38;;
75218;SDS011;63801;49.414;19.474;2023-09-19T05:46:44;16.88;;;10.57;;
75218;SDS011;63801;49.414;19.474;2023-09-19T05:48:46;17.87;;;10.83;;
75218;SDS011;63801;49.414;19.474;2023-09-19T05:50:47;13.52;;;10.70;;
75218;SDS011;63801;49.414;19.474;2023-09-19T05:52:54;14.45;;;11.23;;
75218;SDS011;63801;49.414;19.474;2023-09-19T05:54:56;12.82;;;9.88;;
75218;SDS011;63801;49.414;19.474;2023-09-19T05:56:56;13.02;;;9.85;;
75218;SDS011;63801;49.414;19.474;2023-09-19T05:58:57;14.13;;;9.98;;
75218;SDS011;63801;49.414;19.474;2023-09-19T06:00:59;13.53;;;9.60;;
75218;SDS011;63801;49.414;19.474;2023-09-19T06:02:59;12.48;;;9.40;;
75218;SDS011;63801;49.414;19.474;2023-09-19T06:05:00;13.93;;;9.40;;
75218;SDS011;63801;49.414;19.474;2023-09-19T06:07:00;13.10;;;9.07;;
75218;SDS011;63801;49.414;19.474;2023-09-19T06:09:01;12.63;;;8.65;;
75218;SDS011;63801;49.414;19.474;2023-09-19T06:11:02;12.52;;;8.23;;
75218;SDS011;63801;49.414;19.474;2023-09-19T06:13:03;11.57;;;8.80;;
75218;SDS011;63801;49.414;19.474;2023-09-19T06:15:09;11.80;;;8.65;;
75218;SDS011;63801;49.414;19.474;2023-09-19T06:17:15;11.32;;;8.10;;
75218;SDS011;63801;49.414;19.474;2023-09-19T06:19:15;13.15;;;8.82;;
75218;SDS011;63801;49.414;19.474;2023-09-19T06:21:15;12.43;;;9.10;;
75218;SDS011;63801;49.414;19.474;2023-09-19T06:23:16;13.45;;;9.63;;
75218;SDS011;63801;49.414;19.474;2023-09-19T06:25:17;15.93;;;10.27;;
75218;SDS011;63801;49.414;19.474;2023-09-19T06:27:21;13.23;;;9.77;;
75218;SDS011;63801;49.414;19.474;2023-09-19T06:29:22;15.13;;;10.35;;
75218;SDS011;63801;49.414;19.474;2023-09-19T06:33:26;17.38;;;11.02;;
75218;SDS011;63801;49.414;19.474;2023-09-19T06:35:26;16.20;;;11.43;;
75218;SDS011;63801;49.414;19.474;2023-09-19T06:37:29;15.20;;;10.77;;
75218;SDS011;63801;49.414;19.474;2023-09-19T06:39:29;16.15;;;11.45;;
75218;SDS011;63801;49.414;19.474;2023-09-19T06:41:31;14.85;;;10.57;;
75218;SDS011;63801;49.414;19.474;2023-09-19T06:43:31;14.98;;;10.18;;
75218;SDS011;63801;49.414;19.474;2023-09-19T06:45:33;13.25;;;10.02;;
75218;SDS011;63801;49.414;19.474;2023-09-19T06:47:34;14.10;;;9.38;;
75218;SDS011;63801;49.414;19.474;2023-09-19T06:49:34;16.05;;;10.15;;
75218;SDS011;63801;49.414;19.474;2023-09-19T06:51:35;15.80;;;10.07;;
75218;SDS011;63801;49.414;19.474;2023-09-19T06:53:36;14.15;;;10.02;;
75218;SDS011;63801;49.414;19.474;2023-09-19T06:55:36;14.02;;;10.00;;
75218;SDS011;63801;49.414;19.474;2023-09-19T06:57:40;15.32;;;10.35;;
75218;SDS011;63801;49.414;19.474;2023-09-19T06:59:43;17.33;;;10.30;;
75218;SDS011;63801;49.414;19.474;2023-09-19T07:01:45;16.02;;;10.80;;
75218;SDS011;63801;49.414;19.474;2023-09-19T07:03:47;16.45;;;11.30;;
75218;SDS011;63801;49.414;19.474;2023-09-19T07:05:47;16.42;;;11.27;;
75218;SDS011;63801;49.414;19.474;2023-09-19T07:07:48;19.95;;;12.57;;
75218;SDS011;63801;49.414;19.474;2023-09-19T07:09:48;16.98;;;12.15;;
75218;SDS011;63801;49.414;19.474;2023-09-19T07:11:51;17.13;;;11.77;;
75218;SDS011;63801;49.414;19.474;2023-09-19T07:13:51;16.27;;;10.60;;
75218;SDS011;63801;49.414;19.474;2023-09-19T07:15:51;17.02;;;11.80;;
75218;SDS011;63801;49.414;19.474;2023-09-19T07:17:52;15.98;;;11.18;;
75218;SDS011;63801;49.414;19.474;2023-09-19T07:19:53;18.33;;;10.47;;
75218;SDS011;63801;49.414;19.474;2023-09-19T07:21:54;17.35;;;11.23;;
75218;SDS011;63801;49.414;19.474;2023-09-19T07:23:54;12.43;;;8.43;;
75218;SDS011;63801;49.414;19.474;2023-09-19T07:25:57;15.10;;;8.63;;
75218;SDS011;63801;49.414;19.474;2023-09-19T07:27:58;11.90;;;7.90;;
75218;SDS011;63801;49.414;19.474;2023-09-19T07:30:02;11.35;;;7.50;;
75218;SDS011;63801;49.414;19.474;2023-09-19T07:32:03;10.82;;;6.88;;
75218;SDS011;63801;49.414;19.474;2023-09-19T07:34:04;7.00;;;4.40;;
75218;SDS011;63801;49.414;19.474;2023-09-19T07:36:05;6.25;;;3.83;;
75218;SDS011;63801;49.414;19.474;2023-09-19T07:38:06;6.78;;;4.10;;
75218;SDS011;63801;49.414;19.474;2023-09-19T07:40:07;5.85;;;4.00;;
75218;SDS011;63801;49.414;19.474;2023-09-19T07:42:09;6.30;;;4.10;;
75218;SDS011;63801;49.414;19.474;2023-09-19T07:44:11;7.75;;;4.40;;
75218;SDS011;63801;49.414;19.474;2023-09-19T07:46:11;7.53;;;4.50;;
75218;SDS011;63801;49.414;19.474;2023-09-19T07:48:12;6.10;;;4.20;;
75218;SDS011;63801;49.414;19.474;2023-09-19T07:50:15;6.20;;;4.65;;
75218;SDS011;63801;49.414;19.474;2023-09-19T07:52:18;7.53;;;4.80;;
75218;SDS011;63801;49.414;19.474;2023-09-19T07:54:19;7.15;;;4.10;;
75218;SDS011;63801;49.414;19.474;2023-09-19T07:56:20;7.78;;;4.30;;
75218;SDS011;63801;49.414;19.474;2023-09-19T07:58:22;6.65;;;4.40;;
75218;SDS011;63801;49.414;19.474;2023-09-19T08:00:22;9.18;;;4.70;;
75218;SDS011;63801;49.414;19.474;2023-09-19T08:02:23;6.65;;;4.50;;
75218;SDS011;63801;49.414;19.474;2023-09-19T08:04:23;7.03;;;4.40;;
75218;SDS011;63801;49.414;19.474;2023-09-19T08:06:25;6.35;;;4.70;;
75218;SDS011;63801;49.414;19.474;2023-09-19T08:08:29;8.77;;;4.88;;
75218;SDS011;63801;49.414;19.474;2023-09-19T08:10:29;7.40;;;4.60;;
75218;SDS011;63801;49.414;19.474;2023-09-19T08:12:35;8.32;;;4.68;;
75218;SDS011;63801;49.414;19.474;2023-09-19T08:14:36;7.70;;;4.78;;
75218;SDS011;63801;49.414;19.474;2023-09-19T08:16:41;5.70;;;4.32;;
75218;SDS011;63801;49.414;19.474;2023-09-19T08:18:46;6.60;;;4.00;;
75218;SDS011;63801;49.414;19.474;2023-09-19T08:20:50;7.22;;;4.00;;
75218;SDS011;63801;49.414;19.474;2023-09-19T08:22:53;5.53;;;3.85;;
75218;SDS011;63801;49.414;19.474;2023-09-19T08:24:54;5.22;;;3.58;;
75218;SDS011;63801;49.414;19.474;2023-09-19T08:26:56;7.73;;;3.70;;
75218;SDS011;63801;49.414;19.474;2023-09-19T08:28:57;6.13;;;3.28;;
75218;SDS011;63801;49.414;19.474;2023-09-19T08:31:01;6.32;;;3.47;;
75218;SDS011;63801;49.414;19.474;2023-09-19T08:33:04;5.25;;;3.20;;
75218;SDS011;63801;49.414;19.474;2023-09-19T08:35:05;5.50;;;2.92;;
75218;SDS011;63801;49.414;19.474;2023-09-19T08:37:06;6.40;;;2.90;;
75218;SDS011;63801;49.414;19.474;2023-09-19T08:39:07;5.70;;;2.72;;
75218;SDS011;63801;49.414;19.474;2023-09-19T08:41:08;5.65;;;2.22;;
75218;SDS011;63801;49.414;19.474;2023-09-19T08:43:09;3.50;;;2.08;;
75218;SDS011;63801;49.414;19.474;2023-09-19T08:45:10;3.20;;;1.88;;
75218;SDS011;63801;49.414;19.474;2023-09-19T08:47:14;4.03;;;2.22;;
75218;SDS011;63801;49.414;19.474;2023-09-19T08:49:19;4.00;;;2.40;;
75218;SDS011;63801;49.414;19.474;2023-09-19T08:53:49;2.45;;;1.67;;
75218;SDS011;63801;49.414;19.474;2023-09-19T08:55:51;3.92;;;1.65;;
75218;SDS011;63801;49.414;19.474;2023-09-19T08:57:59;3.58;;;1.92;;
75218;SDS011;63801;49.414;19.474;2023-09-19T09:00:07;7.25;;;1.83;;
75218;SDS011;63801;49.414;19.474;2023-09-19T09:02:12;8.32;;;3.55;;
75218;SDS011;63801;49.414;19.474;2023-09-19T09:04:14;3.03;;;1.73;;
75218;SDS011;63801;49.414;19.474;2023-09-19T09:06:14;3.67;;;1.85;;
75218;SDS011;63801;49.414;19.474;2023-09-19T09:08:15;3.45;;;1.80;;
75218;SDS011;63801;49.414;19.474;2023-09-19T09:10:17;4.18;;;2.00;;
75218;SDS011;63801;49.414;19.474;2023-09-19T09:12:22;5.80;;;1.98;;
75218;SDS011;63801;49.414;19.474;2023-09-19T09:14:23;4.60;;;2.17;;
75218;SDS011;63801;49.414;19.474;2023-09-19T09:16:24;2.88;;;1.92;;
75218;SDS011;63801;49.414;19.474;2023-09-19T09:18:25;4.72;;;2.20;;
75218;SDS011;63801;49.414;19.474;2023-09-19T09:20:26;5.28;;;2.15;;
75218;SDS011;63801;49.414;19.474;2023-09-19T09:22:27;4.28;;;2.00;;
75218;SDS011;63801;49.414;19.474;2023-09-19T09:26:41;4.32;;;2.30;;
75218;SDS011;63801;49.414;19.474;2023-09-19T09:28:47;4.68;;;2.17;;
75218;SDS011;63801;49.414;19.474;2023-09-19T09:30:48;3.50;;;2.00;;
75218;SDS011;63801;49.414;19.474;2023-09-19T09:32:50;3.72;;;2.25;;
75218;SDS011;63801;49.414;19.474;2023-09-19T09:35:07;2.88;;;1.88;;
75218;SDS011;63801;49.414;19.474;2023-09-19T09:37:15;3.25;;;1.95;;
75218;SDS011;63801;49.414;19.474;2023-09-19T09:39:29;3.17;;;2.30;;
75218;SDS011;63801;49.414;19.474;2023-09-19T09:41:37;4.47;;;2.20;;
75218;SDS011;63801;49.414;19.474;2023-09-19T09:43:39;4.57;;;2.35;;
75218;SDS011;63801;49.414;19.474;2023-09-19T09:45:41;5.47;;;2.50;;
75218;SDS011;63801;49.414;19.474;2023-09-19T09:47:48;7.78;;;2.40;;
75218;SDS011;63801;49.414;19.474;2023-09-19T09:49:55;5.15;;;2.20;;
75218;SDS011;63801;49.414;19.474;2023-09-19T09:52:07;4.53;;;2.30;;
75218;SDS011;63801;49.414;19.474;2023-09-19T09:54:16;4.90;;;2.50;;
75218;SDS011;63801;49.414;19.474;2023-09-19T09:56:20;2.88;;;2.05;;
75218;SDS011;63801;49.414;19.474;2023-09-19T09:58:21;3.65;;;2.22;;
75218;SDS011;63801;49.414;19.474;2023-09-19T10:00:25;4.07;;;2.05;;
75218;SDS011;63801;49.414;19.474;2023-09-19T10:02:35;4.55;;;2.25;;
75218;SDS011;63801;49.414;19.474;2023-09-19T10:04:40;3.88;;;2.45;;
75218;SDS011;63801;49.414;19.474;2023-09-19T10:06:51;3.67;;;2.05;;
75218;SDS011;63801;49.414;19.474;2023-09-19T10:09:04;4.32;;;2.20;;
75218;SDS011;63801;49.414;19.474;2023-09-19T10:11:16;4.80;;;2.50;;
75218;SDS011;63801;49.414;19.474;2023-09-19T10:13:16;4.93;;;1.95;;
75218;SDS011;63801;49.414;19.474;2023-09-19T10:15:21;4.55;;;2.03;;
75218;SDS011;63801;49.414;19.474;2023-09-19T10:17:26;4.13;;;2.38;;
75218;SDS011;63801;49.414;19.474;2023-09-19T10:19:33;5.15;;;2.35;;
75218;SDS011;63801;49.414;19.474;2023-09-19T10:21:37;3.33;;;2.45;;
75218;SDS011;63801;49.414;19.474;2023-09-19T10:23:39;4.68;;;2.53;;
75218;SDS011;63801;49.414;19.474;2023-09-19T10:25:43;3.97;;;2.30;;
75218;SDS011;63801;49.414;19.474;2023-09-19T10:27:47;3.22;;;1.98;;
75218;SDS011;63801;49.414;19.474;2023-09-19T10:29:50;3.58;;;2.20;;
75218;SDS011;63801;49.414;19.474;2023-09-19T10:31:52;3.42;;;2.20;;
75218;SDS011;63801;49.414;19.474;2023-09-19T10:33:53;6.53;;;2.20;;
75218;SDS011;63801;49.414;19.474;2023-09-19T10:35:56;3.92;;;2.30;;
75218;SDS011;63801;49.414;19.474;2023-09-19T10:38:00;2.50;;;2.00;;
75218;SDS011;63801;49.414;19.474;2023-09-19T10:40:01;4.90;;;2.40;;
75218;SDS011;63801;49.414;19.474;2023-09-19T10:42:03;4.25;;;2.10;;
75218;SDS011;63801;49.414;19.474;2023-09-19T10:44:08;4.15;;;2.10;;
75218;SDS011;63801;49.414;19.474;2023-09-19T10:46:09;3.95;;;2.20;;
75218;SDS011;63801;49.414;19.474;2023-09-19T10:48:12;3.67;;;2.40;;
75218;SDS011;63801;49.414;19.474;2023-09-19T10:50:21;5.70;;;2.30;;
75218;SDS011;63801;49.414;19.474;2023-09-19T10:52:24;4.65;;;2.10;;
75218;SDS011;63801;49.414;19.474;2023-09-19T10:54:28;3.13;;;1.90;;
75218;SDS011;63801;49.414;19.474;2023-09-19T10:56:37;5.32;;;1.92;;
75218;SDS011;63801;49.414;19.474;2023-09-19T10:58:41;4.95;;;1.90;;
75218;SDS011;63801;49.414;19.474;2023-09-19T11:00:51;6.00;;;2.13;;
75218;SDS011;63801;49.414;19.474;2023-09-19T11:05:12;4.28;;;2.50;;
75218;SDS011;63801;49.414;19.474;2023-09-19T11:07:13;4.55;;;2.20;;
75218;SDS011;63801;49.414;19.474;2023-09-19T11:09:15;2.95;;;2.22;;
75218;SDS011;63801;49.414;19.474;2023-09-19T11:14:13;4.00;;;2.25;;
75218;SDS011;63801;49.414;19.474;2023-09-19T11:16:17;2.50;;;2.10;;
75218;SDS011;63801;49.414;19.474;2023-09-19T11:21:24;2.85;;;1.90;;
75218;SDS011;63801;49.414;19.474;2023-09-19T11:23:33;3.13;;;2.22;;
75218;SDS011;63801;49.414;19.474;2023-09-19T11:28:15;7.47;;;2.38;;
75218;SDS011;63801;49.414;19.474;2023-09-19T11:30:48;6.30;;;2.38;;
75218;SDS011;63801;49.414;19.474;2023-09-19T11:35:08;3.78;;;2.15;;
75218;SDS011;63801;49.414;19.474;2023-09-19T11:39:24;6.22;;;2.40;;
75218;SDS011;63801;49.414;19.474;2023-09-19T11:41:36;5.88;;;2.90;;
75218;SDS011;63801;49.414;19.474;2023-09-19T11:43:37;4.68;;;2.13;;
75218;SDS011;63801;49.414;19.474;2023-09-19T11:47:49;3.75;;;2.10;;
75218;SDS011;63801;49.414;19.474;2023-09-19T11:49:50;2.90;;;1.65;;
75218;SDS011;63801;49.414;19.474;2023-09-19T11:51:53;6.70;;;2.90;;
75218;SDS011;63801;49.414;19.474;2023-09-19T11:53:57;6.47;;;2.78;;
75218;SDS011;63801;49.414;19.474;2023-09-19T11:56:00;3.85;;;2.20;;
75218;SDS011;63801;49.414;19.474;2023-09-19T11:58:01;4.50;;;2.40;;
75218;SDS011;63801;49.414;19.474;2023-09-19T12:00:02;6.47;;;2.40;;
75218;SDS011;63801;49.414;19.474;2023-09-19T12:02:05;5.43;;;2.58;;
75218;SDS011;63801;49.414;19.474;2023-09-19T12:04:08;7.60;;;2.55;;
75218;SDS011;63801;49.414;19.474;2023-09-19T12:06:11;4.25;;;2.30;;
75218;SDS011;63801;49.414;19.474;2023-09-19T12:08:14;7.00;;;2.60;;
75218;SDS011;63801;49.414;19.474;2023-09-19T12:10:16;10.23;;;3.63;;
75218;SDS011;63801;49.414;19.474;2023-09-19T12:12:24;6.50;;;2.37;;
75218;SDS011;63801;49.414;19.474;2023-09-19T12:14:29;5.13;;;2.35;;
75218;SDS011;63801;49.414;19.474;2023-09-19T12:16:30;8.93;;;3.00;;
75218;SDS011;63801;49.414;19.474;2023-09-19T12:18:33;8.88;;;3.20;;
75218;SDS011;63801;49.414;19.474;2023-09-19T12:22:46;5.30;;;2.60;;
75218;SDS011;63801;49.414;19.474;2023-09-19T12:24:47;4.25;;;2.38;;
75218;SDS011;63801;49.414;19.474;2023-09-19T12:26:48;5.68;;;2.30;;
75218;SDS011;63801;49.414;19.474;2023-09-19T12:28:52;3.35;;;1.70;;
75218;SDS011;63801;49.414;19.474;2023-09-19T12:30:55;2.45;;;1.50;;
75218;SDS011;63801;49.414;19.474;2023-09-19T12:32:55;2.80;;;1.70;;
75218;SDS011;63801;49.414;19.474;2023-09-19T12:34:58;4.25;;;1.92;;